エドモントン の空港の天気 - METARとTAF

エドモントン国際空港 ( CYEG / YEG ) - カナダ アルバータ州Edmonton Capital Region
飛行場実況気象(Metar)
観測時間10/16 01:00 MDT (10/16 07:00 UTC)
風向・風速東南東 2m/s
視程10km以上
天気現象
全天の8割程度の雲 雲底高度 5490m
全天の8割程度の雲 雲底高度 6710m
気温1℃
湿度100%
気圧1008.4hPa
METARCYEG 160700Z 11003KT 20SM BKN180 BKN220 01/01 A2970 RMK AC5CI2 SLP084
過去の天気等 Google飛行場航空写真 Wunderground天気予報

過去48時間のMETAR

飛行場予報(TAF)
発表時間: 10/15 23:41 MDT (10/16 05:41 UTC)
予報対象時間: 16日0時 MDT ~ 17日0時 MDT
風向・風速不定 2m/s
視程10km以上
少しの雲 雲底高度 2740m
全天の8割程度の雲 雲底高度 3660m
全天の8割程度の雲 雲底高度 4570m
16日3時 MDT から
風向・風速南南西 3m/s
視程10km以上
全天の4割程度の雲 雲底高度 2440m
全天の4割程度の雲 雲底高度 7320m
16日8時 MDT ~ 16日10時 MDT に徐々に
風向・風速南南東 4m/s
16日14時 MDT から
風向・風速南南東 6m/s
視程10km以上
少しの雲 雲底高度 6100m
16日22時 MDT から
風向・風速南南西 5m/s
視程10km以上
全天の4割程度の雲 雲底高度 4880m
全天の8割程度の雲 雲底高度 6710m
TAF CYEG 160541Z 1606/1706 VRB03KT P6SM FEW090 BKN120 BKN150
FM160900 20005KT P6SM SCT080 SCT240
BECMG 1614/1616 16008KT
FM162000 15012KT P6SM FEW200
FM170400 20010KT P6SM SCT160 BKN220 RMK NXT FCST BY 160900Z